Time;durP1;ratioP1;P1;durP2;ratioP2;P2;SDS_P1;SDS_P2;PMS_P1;PMS_P2;Temp;Humidity;BMP_temperature;BMP_pressure;BME280_temperature;BME280_humidity;BME280_pressure;Samples;Min_cycle;Max_cycle;Signal;HPM_P1;HPM_P2
2023/01/26 00:02:00;;;;;;;38.20;10.38;;;;;;;;;;6171975;23;20016;-94
2023/01/26 00:04:26;;;;;;;22.95;7.07;;;;;;;;;;6176452;22;20027;-95
2023/01/26 00:06:52;;;;;;;28.90;10.93;;;;;;;;;;6170584;23;20005;-95
2023/01/26 00:09:18;;;;;;;39.92;11.00;;;;;;;;;;6171716;23;20005;-96
2023/01/26 00:11:44;;;;;;;25.20;8.63;;;;;;;;;;6172531;23;20460;-96
2023/01/26 00:14:10;;;;;;;30.15;9.95;;;;;;;;;;6171709;23;20393;-95
2023/01/26 00:16:36;;;;;;;28.52;7.82;;;;;;;;;;6171481;23;20361;-95
2023/01/26 00:19:03;;;;;;;27.92;9.27;;;;;;;;;;6172101;23;20099;-96
2023/01/26 00:21:29;;;;;;;11.57;4.18;;;;;;;;;;6173106;23;20008;-96
2023/01/26 00:23:55;;;;;;;13.45;5.25;;;;;;;;;;6173061;23;20088;-96
2023/01/26 00:26:23;;;;;;;35.53;11.27;;;;;;;;;;6172818;23;20437;-96
2023/01/26 00:28:49;;;;;;;34.00;9.65;;;;;;;;;;6197427;23;20011;-96
2023/01/26 00:31:17;;;;;;;21.75;8.50;;;;;;;;;;6173027;23;20120;-96
2023/01/26 00:33:43;;;;;;;28.92;9.40;;;;;;;;;;6195151;23;20008;-94
2023/01/26 00:36:09;;;;;;;38.92;6.50;;;;;;;;;;6170960;23;20009;-96
2023/01/26 00:38:35;;;;;;;32.45;9.20;;;;;;;;;;6195556;23;20421;-95
2023/01/26 00:41:01;;;;;;;29.25;9.70;;;;;;;;;;6171089;23;20088;-96
2023/01/26 00:43:28;;;;;;;33.08;9.43;;;;;;;;;;6170981;23;20008;-96
2023/01/26 00:45:54;;;;;;;33.72;9.98;;;;;;;;;;6195406;23;20012;-96
2023/01/26 00:48:20;;;;;;;16.35;5.72;;;;;;;;;;6194390;23;20011;-96
2023/01/26 00:50:46;;;;;;;15.20;5.90;;;;;;;;;;6170081;23;20039;-95
2023/01/26 00:53:12;;;;;;;36.45;10.60;;;;;;;;;;6195492;23;20001;-96
2023/01/26 00:55:38;;;;;;;33.65;10.38;;;;;;;;;;6195428;23;20005;-95
2023/01/26 00:58:06;;;;;;;23.67;7.63;;;;;;;;;;6197003;23;20425;-95
2023/01/26 01:00:33;;;;;;;34.58;9.85;;;;;;;;;;6195592;23;20009;-96
2023/01/26 01:03:00;;;;;;;24.38;8.45;;;;;;;;;;6171316;23;20052;-96
2023/01/26 01:05:27;;;;;;;37.15;11.43;;;;;;;;;;6174440;22;20025;-96
2023/01/26 01:07:53;;;;;;;12.88;4.40;;;;;;;;;;6194903;23;20087;-95
2023/01/26 01:10:19;;;;;;;40.97;11.68;;;;;;;;;;6170457;23;20091;-96
2023/01/26 01:12:45;;;;;;;40.03;11.07;;;;;;;;;;6194745;23;20333;-96
2023/01/26 01:15:11;;;;;;;31.25;8.63;;;;;;;;;;6194143;23;20031;-96
2023/01/26 01:17:37;;;;;;;52.35;14.00;;;;;;;;;;6194368;23;20043;-96
2023/01/26 01:20:04;;;;;;;29.00;9.95;;;;;;;;;;6170793;23;20421;-95
2023/01/26 01:22:31;;;;;;;23.65;8.35;;;;;;;;;;6194592;23;20004;-95
2023/01/26 01:24:57;;;;;;;46.22;12.32;;;;;;;;;;6169721;23;20047;-95
2023/01/26 01:27:23;;;;;;;40.47;10.48;;;;;;;;;;6194147;23;20019;-95
2023/01/26 01:29:50;;;;;;;34.78;10.30;;;;;;;;;;6194008;23;20001;-96
2023/01/26 01:32:16;;;;;;;31.52;11.20;;;;;;;;;;6193929;23;20444;-96
2023/01/26 01:34:42;;;;;;;43.63;11.32;;;;;;;;;;6194571;23;20000;-95
2023/01/26 01:37:08;;;;;;;44.83;12.05;;;;;;;;;;6169738;23;20363;-96
2023/01/26 01:39:34;;;;;;;41.60;10.88;;;;;;;;;;6170395;23;20314;-96
2023/01/26 01:42:00;;;;;;;21.67;7.07;;;;;;;;;;6171434;23;20451;-96
2023/01/26 01:44:26;;;;;;;38.58;11.00;;;;;;;;;;6172076;23;20450;-96
2023/01/26 01:46:52;;;;;;;41.45;9.23;;;;;;;;;;6172952;23;20068;-96
2023/01/26 01:49:20;;;;;;;40.90;11.43;;;;;;;;;;6198547;23;20011;-95
2023/01/26 01:51:56;;;;;;;41.90;11.43;;;;;;;;;;6201027;23;20421;-95
2023/01/26 01:54:26;;;;;;;36.83;9.13;;;;;;;;;;6203157;23;20000;-95
2023/01/26 01:56:55;;;;;;;33.47;9.82;;;;;;;;;;6215534;23;19989;-94
2023/01/26 01:59:22;;;;;;;26.33;8.85;;;;;;;;;;6215514;23;20441;-94
2023/01/26 02:01:50;;;;;;;32.97;8.75;;;;;;;;;;6211009;23;20072;-95
2023/01/26 02:04:16;;;;;;;39.72;9.68;;;;;;;;;;6200632;22;20028;-95
2023/01/26 02:06:47;;;;;;;26.38;7.07;;;;;;;;;;6176000;23;20008;-95
2023/01/26 02:10:17;;;;;;;26.85;8.07;;;;;;;;;;6195424;23;20012;-96
2023/01/26 02:12:01;;;;;;;36.80;8.20;;;;;;;;;;6221609;23;20031;-95
2023/01/26 02:14:28;;;;;;;37.13;8.18;;;;;;;;;;6195378;23;20337;-96
2023/01/26 02:16:54;;;;;;;11.88;3.90;;;;;;;;;;6171051;23;20016;-95
2023/01/26 02:19:32;;;;;;;31.67;10.05;;;;;;;;;;6194756;23;20036;-96
2023/01/26 02:22:02;;;;;;;12.85;5.32;;;;;;;;;;6195088;23;20005;-96
2023/01/26 02:24:32;;;;;;;21.98;5.85;;;;;;;;;;6194787;23;20083;-96
2023/01/26 02:26:59;;;;;;;23.75;7.00;;;;;;;;;;6194668;23;20005;-96
2023/01/26 02:29:25;;;;;;;32.55;9.43;;;;;;;;;;6194711;23;20008;-96
2023/01/26 02:31:52;;;;;;;23.77;8.85;;;;;;;;;;6195702;23;20028;-95
2023/01/26 02:34:18;;;;;;;19.13;8.40;;;;;;;;;;6170109;23;20000;-96
2023/01/26 02:36:44;;;;;;;39.60;11.13;;;;;;;;;;6195363;23;20024;-96
2023/01/26 02:39:20;;;;;;;36.40;9.90;;;;;;;;;;6169187;23;20031;-96
2023/01/26 02:44:32;;;;;;;43.50;12.20;;;;;;;;;;6222168;23;20070;-96
2023/01/26 02:46:58;;;;;;;32.15;8.75;;;;;;;;;;6193914;23;20001;-96
2023/01/26 02:52:09;;;;;;;41.08;10.73;;;;;;;;;;6198858;23;20036;-96
2023/01/26 02:57:20;;;;;;;39.40;10.65;;;;;;;;;;6198718;23;20047;-96
2023/01/26 02:59:46;;;;;;;29.55;8.45;;;;;;;;;;6169405;23;20004;-96
2023/01/26 03:02:12;;;;;;;31.77;9.75;;;;;;;;;;6171695;23;20025;-96
2023/01/26 03:04:38;;;;;;;37.17;10.52;;;;;;;;;;6194109;22;20504;-96
2023/01/26 03:07:04;;;;;;;33.53;9.93;;;;;;;;;;6195459;23;20095;-96
2023/01/26 03:09:30;;;;;;;34.25;9.63;;;;;;;;;;6170103;23;20437;-96
2023/01/26 03:11:56;;;;;;;40.17;10.93;;;;;;;;;;6179230;23;20031;-96
2023/01/26 03:14:22;;;;;;;34.03;9.60;;;;;;;;;;6170553;23;20027;-96
2023/01/26 03:16:48;;;;;;;29.27;8.15;;;;;;;;;;6169617;23;20005;-96
2023/01/26 03:27:33;;;;;;;35.50;10.60;;;;;;;;;;6222843;23;20040;-96
2023/01/26 03:30:00;;;;;;;25.65;8.32;;;;;;;;;;6171131;23;20008;-96
2023/01/26 03:32:26;;;;;;;21.23;7.32;;;;;;;;;;6170663;23;20004;-96
2023/01/26 03:34:52;;;;;;;33.03;11.07;;;;;;;;;;6171236;23;20036;-96
2023/01/26 03:37:22;;;;;;;34.63;9.43;;;;;;;;;;6171140;23;20051;-95
2023/01/26 03:56:37;;;;;;;37.53;10.18;;;;;;;;;;6199597;23;20063;-96
2023/01/26 03:59:08;;;;;;;54.33;11.90;;;;;;;;;;6194550;23;20016;-96
2023/01/26 04:01:35;;;;;;;37.95;10.95;;;;;;;;;;6194646;23;20039;-96
2023/01/26 04:09:32;;;;;;;38.80;10.00;;;;;;;;;;6221185;23;20309;-96
2023/01/26 04:11:58;;;;;;;35.47;10.32;;;;;;;;;;6195027;23;20032;-96
2023/01/26 04:22:42;;;;;;;42.45;11.77;;;;;;;;;;6197972;23;20067;-96
2023/01/26 04:25:09;;;;;;;43.03;11.43;;;;;;;;;;6169920;23;20019;-96
2023/01/26 04:27:35;;;;;;;46.63;12.15;;;;;;;;;;6193624;23;20009;-96
2023/01/26 04:30:02;;;;;;;37.08;11.32;;;;;;;;;;6193203;23;20001;-96
2023/01/26 04:32:35;;;;;;;50.00;11.25;;;;;;;;;;6193877;23;20001;-96
2023/01/26 04:35:01;;;;;;;56.63;13.73;;;;;;;;;;6169275;23;20058;-96
2023/01/26 04:37:28;;;;;;;44.80;10.75;;;;;;;;;;6196041;23;20001;-96
2023/01/26 04:39:54;;;;;;;45.58;13.23;;;;;;;;;;6195029;23;20008;-96
2023/01/26 04:42:23;;;;;;;48.40;12.80;;;;;;;;;;6197581;23;20441;-96
2023/01/26 04:44:49;;;;;;;57.42;11.80;;;;;;;;;;6175037;23;20009;-96
2023/01/26 04:47:15;;;;;;;61.00;13.30;;;;;;;;;;6186153;23;19989;-96
2023/01/26 04:49:41;;;;;;;60.67;11.50;;;;;;;;;;6192004;23;20021;-96
2023/01/26 04:52:07;;;;;;;66.43;15.32;;;;;;;;;;6217608;23;20036;-96
2023/01/26 04:54:33;;;;;;;66.97;14.20;;;;;;;;;;6188074;23;20063;-96
2023/01/26 04:56:59;;;;;;;62.35;13.50;;;;;;;;;;6177679;23;20034;-96
2023/01/26 04:59:25;;;;;;;51.70;12.88;;;;;;;;;;6172624;23;20004;-96
2023/01/26 05:01:51;;;;;;;68.70;13.55;;;;;;;;;;6170273;23;20016;-96
2023/01/26 05:04:17;;;;;;;58.13;14.43;;;;;;;;;;6192677;22;20047;-96
2023/01/26 05:06:43;;;;;;;76.30;14.13;;;;;;;;;;6165244;23;20069;-96
2023/01/26 05:09:10;;;;;;;70.70;13.00;;;;;;;;;;6190053;23;20140;-96
2023/01/26 05:11:39;;;;;;;69.65;14.40;;;;;;;;;;6189320;23;20005;-96
2023/01/26 05:14:05;;;;;;;64.85;13.05;;;;;;;;;;6166121;23;20009;-96
2023/01/26 05:16:31;;;;;;;64.15;14.25;;;;;;;;;;6189538;23;20019;-96
2023/01/26 05:18:57;;;;;;;69.28;14.43;;;;;;;;;;6165059;23;20020;-96
2023/01/26 05:21:26;;;;;;;78.07;15.40;;;;;;;;;;6166492;23;20017;-96
2023/01/26 05:23:52;;;;;;;62.92;13.40;;;;;;;;;;6190172;23;20016;-96
2023/01/26 05:26:18;;;;;;;69.30;14.38;;;;;;;;;;6166783;23;20009;-96
2023/01/26 05:28:44;;;;;;;85.53;15.98;;;;;;;;;;6165388;23;20015;-96
2023/01/26 05:31:10;;;;;;;59.83;12.15;;;;;;;;;;6170571;23;20005;-95
2023/01/26 05:33:36;;;;;;;47.95;11.68;;;;;;;;;;6197306;23;20005;-95
2023/01/26 05:36:04;;;;;;;94.13;15.50;;;;;;;;;;6197248;23;20001;-95
2023/01/26 05:38:30;;;;;;;69.25;13.88;;;;;;;;;;6197979;23;20032;-95
2023/01/26 05:40:56;;;;;;;65.78;14.70;;;;;;;;;;6197608;23;20009;-95
2023/01/26 05:43:23;;;;;;;91.43;15.85;;;;;;;;;;6199048;23;20036;-96
2023/01/26 05:45:49;;;;;;;69.82;13.80;;;;;;;;;;6165099;23;20064;-96
2023/01/26 05:48:15;;;;;;;93.10;16.92;;;;;;;;;;6189689;23;20005;-96
2023/01/26 05:50:41;;;;;;;90.57;15.57;;;;;;;;;;6189068;23;20009;-96
2023/01/26 05:53:07;;;;;;;83.50;15.95;;;;;;;;;;6163909;23;20001;-96
2023/01/26 05:55:33;;;;;;;83.65;15.85;;;;;;;;;;6164126;23;20009;-96
2023/01/26 05:57:59;;;;;;;82.18;16.65;;;;;;;;;;6164965;23;20048;-96
2023/01/26 06:00:25;;;;;;;79.03;13.80;;;;;;;;;;6164927;23;20044;-96
2023/01/26 06:03:01;;;;;;;83.68;14.75;;;;;;;;;;6163481;23;20033;-96
2023/01/26 06:05:27;;;;;;;73.32;13.77;;;;;;;;;;6174026;22;20020;-96
2023/01/26 06:07:53;;;;;;;62.08;12.57;;;;;;;;;;6167573;23;20013;-96
2023/01/26 06:10:19;;;;;;;77.35;13.23;;;;;;;;;;6192900;23;20004;-96
2023/01/26 06:12:45;;;;;;;83.30;13.57;;;;;;;;;;6169000;23;20039;-96
2023/01/26 06:15:11;;;;;;;64.85;11.98;;;;;;;;;;6167791;23;20062;-96
2023/01/26 06:17:37;;;;;;;60.17;12.25;;;;;;;;;;6168351;23;20020;-96
2023/01/26 06:20:04;;;;;;;72.50;11.95;;;;;;;;;;6168172;23;20013;-96
2023/01/26 06:22:30;;;;;;;58.75;11.93;;;;;;;;;;6192907;23;20005;-96
2023/01/26 06:24:56;;;;;;;69.75;10.50;;;;;;;;;;6193268;23;20032;-96
2023/01/26 06:27:23;;;;;;;53.70;9.65;;;;;;;;;;6167597;23;20020;-96
2023/01/26 06:29:49;;;;;;;54.10;9.65;;;;;;;;;;6168144;23;20005;-96
2023/01/26 06:32:15;;;;;;;47.83;8.05;;;;;;;;;;6167700;23;20008;-96
2023/01/26 06:34:41;;;;;;;71.18;9.00;;;;;;;;;;6192420;23;20001;-96
2023/01/26 06:37:07;;;;;;;56.40;7.13;;;;;;;;;;6192254;23;20001;-96
2023/01/26 06:39:33;;;;;;;49.53;6.93;;;;;;;;;;6167448;23;20016;-96
2023/01/26 06:41:59;;;;;;;44.45;5.50;;;;;;;;;;6192711;23;20447;-96
2023/01/26 06:44:26;;;;;;;36.03;4.85;;;;;;;;;;6167714;23;20012;-96
2023/01/26 06:46:52;;;;;;;43.53;5.70;;;;;;;;;;6192242;23;20015;-96
2023/01/26 06:49:18;;;;;;;44.67;4.43;;;;;;;;;;6167243;23;20095;-96
2023/01/26 06:51:53;;;;;;;53.45;6.13;;;;;;;;;;6167228;23;20004;-96
2023/01/26 06:54:19;;;;;;;53.45;5.95;;;;;;;;;;6193364;23;20010;-96
2023/01/26 06:56:45;;;;;;;39.25;4.03;;;;;;;;;;6193580;23;19993;-96
2023/01/26 06:59:11;;;;;;;22.35;4.57;;;;;;;;;;6170964;23;20397;-96
2023/01/26 07:01:39;;;;;;;54.60;5.80;;;;;;;;;;6193325;23;20008;-96
2023/01/26 07:04:05;;;;;;;40.50;5.25;;;;;;;;;;6196360;22;20083;-96
2023/01/26 07:06:31;;;;;;;40.25;5.38;;;;;;;;;;6168841;23;20341;-96
2023/01/26 07:08:57;;;;;;;48.67;5.53;;;;;;;;;;6168486;23;20500;-96
2023/01/26 07:11:24;;;;;;;46.67;5.30;;;;;;;;;;6168761;23;20015;-96
2023/01/26 07:13:50;;;;;;;45.92;5.28;;;;;;;;;;6168745;23;20005;-96
2023/01/26 07:16:17;;;;;;;54.97;5.25;;;;;;;;;;6168535;23;20091;-96
2023/01/26 07:18:44;;;;;;;58.42;4.88;;;;;;;;;;6168536;23;20071;-96
2023/01/26 07:21:11;;;;;;;33.25;5.82;;;;;;;;;;6168435;23;20495;-96
2023/01/26 07:23:37;;;;;;;46.67;5.32;;;;;;;;;;6193323;23;20005;-96
2023/01/26 07:26:04;;;;;;;32.78;4.05;;;;;;;;;;6168409;23;20012;-96
2023/01/26 07:28:30;;;;;;;33.88;4.25;;;;;;;;;;6196471;23;20059;-96
2023/01/26 07:31:03;;;;;;;43.75;6.07;;;;;;;;;;6172468;23;20337;-96
2023/01/26 07:33:32;;;;;;;63.65;5.47;;;;;;;;;;6204451;23;20000;-96
2023/01/26 07:35:59;;;;;;;38.20;4.75;;;;;;;;;;6202353;23;20012;-96
2023/01/26 07:38:25;;;;;;;46.83;4.57;;;;;;;;;;6194564;23;20456;-96
2023/01/26 07:40:53;;;;;;;48.33;5.35;;;;;;;;;;6194489;23;20005;-96
2023/01/26 07:43:19;;;;;;;39.03;5.30;;;;;;;;;;6194987;23;20008;-96
2023/01/26 07:45:46;;;;;;;41.47;4.45;;;;;;;;;;6173362;23;20035;-96
2023/01/26 07:48:12;;;;;;;32.05;5.80;;;;;;;;;;6198238;23;20429;-96
2023/01/26 07:50:38;;;;;;;44.50;4.60;;;;;;;;;;6190360;23;20005;-95
2023/01/26 07:53:04;;;;;;;34.85;5.40;;;;;;;;;;6190793;23;20009;-96
2023/01/26 07:55:30;;;;;;;40.83;4.38;;;;;;;;;;6189763;23;19988;-96
2023/01/26 07:57:56;;;;;;;43.35;5.03;;;;;;;;;;6204998;23;20039;-96
2023/01/26 08:00:22;;;;;;;45.05;6.15;;;;;;;;;;6174297;23;20009;-96
2023/01/26 08:02:49;;;;;;;44.83;5.82;;;;;;;;;;6194666;23;20015;-96
2023/01/26 08:05:16;;;;;;;55.13;5.40;;;;;;;;;;6191729;22;20017;-96
2023/01/26 08:07:44;;;;;;;61.00;5.30;;;;;;;;;;6189746;23;20334;-96
2023/01/26 08:10:11;;;;;;;52.60;5.18;;;;;;;;;;6164419;23;20092;-96
2023/01/26 08:12:37;;;;;;;46.63;5.50;;;;;;;;;;6163782;23;20012;-96
2023/01/26 08:15:03;;;;;;;74.15;6.57;;;;;;;;;;6188516;23;20028;-96
2023/01/26 08:17:32;;;;;;;53.63;5.25;;;;;;;;;;6188365;23;20009;-96
2023/01/26 08:19:58;;;;;;;55.80;5.03;;;;;;;;;;6187619;23;20005;-96
2023/01/26 08:22:24;;;;;;;45.85;6.68;;;;;;;;;;6187562;23;20088;-96
2023/01/26 08:24:50;;;;;;;41.83;5.15;;;;;;;;;;6192663;23;20009;-96
2023/01/26 08:27:19;;;;;;;53.75;5.55;;;;;;;;;;6168253;23;20074;-96
2023/01/26 08:29:45;;;;;;;42.58;6.03;;;;;;;;;;6168338;23;20090;-96
2023/01/26 08:32:11;;;;;;;39.38;5.43;;;;;;;;;;6168290;23;20008;-96
2023/01/26 08:34:37;;;;;;;35.60;4.55;;;;;;;;;;6168595;23;20131;-96
2023/01/26 08:37:03;;;;;;;41.20;4.85;;;;;;;;;;6167824;23;20013;-96
2023/01/26 08:39:29;;;;;;;22.45;3.53;;;;;;;;;;6168013;23;20441;-96
2023/01/26 08:41:55;;;;;;;26.80;4.80;;;;;;;;;;6169048;23;20382;-96
2023/01/26 08:44:21;;;;;;;71.95;7.63;;;;;;;;;;6168158;23;20016;-96
2023/01/26 08:46:47;;;;;;;33.08;4.35;;;;;;;;;;6192563;23;20055;-96
2023/01/26 08:49:13;;;;;;;115.75;11.45;;;;;;;;;;6192628;23;20008;-96
2023/01/26 08:51:39;;;;;;;68.80;8.25;;;;;;;;;;6167836;23;20036;-96
2023/01/26 08:54:09;;;;;;;202.32;22.02;;;;;;;;;;6194112;23;20444;-96
2023/01/26 08:56:35;;;;;;;58.10;7.28;;;;;;;;;;6192359;23;20413;-95
2023/01/26 08:59:01;;;;;;;29.02;4.03;;;;;;;;;;6168564;23;20352;-96
2023/01/26 09:01:27;;;;;;;14.23;2.88;;;;;;;;;;6168359;23;20015;-96
2023/01/26 09:03:55;;;;;;;36.33;4.85;;;;;;;;;;6192870;23;20004;-96
2023/01/26 09:06:21;;;;;;;37.20;4.63;;;;;;;;;;6190006;22;20096;-96
2023/01/26 09:08:47;;;;;;;31.08;4.70;;;;;;;;;;6186823;23;20009;-96
2023/01/26 09:11:13;;;;;;;35.38;5.32;;;;;;;;;;6187373;23;20041;-96
2023/01/26 09:13:40;;;;;;;40.72;5.22;;;;;;;;;;6162467;23;20497;-96
2023/01/26 09:16:07;;;;;;;46.95;6.38;;;;;;;;;;6187893;23;20001;-95
2023/01/26 09:18:33;;;;;;;49.92;5.03;;;;;;;;;;6190298;23;20079;-96
2023/01/26 09:21:06;;;;;;;37.85;4.95;;;;;;;;;;6165754;23;20451;-96
2023/01/26 09:23:33;;;;;;;37.95;4.88;;;;;;;;;;6192826;23;20089;-95
2023/01/26 09:25:59;;;;;;;36.22;4.80;;;;;;;;;;6192011;23;20009;-94
2023/01/26 09:28:25;;;;;;;35.88;3.88;;;;;;;;;;6194747;23;20012;-95
2023/01/26 09:30:51;;;;;;;42.60;4.70;;;;;;;;;;6166775;23;20028;-96
2023/01/26 09:33:20;;;;;;;36.72;4.15;;;;;;;;;;6190336;23;20008;-96
2023/01/26 09:35:46;;;;;;;36.67;3.83;;;;;;;;;;6165281;23;20009;-96
2023/01/26 09:38:13;;;;;;;32.30;3.78;;;;;;;;;;6164490;23;20341;-96
2023/01/26 09:40:57;;;;;;;34.08;5.13;;;;;;;;;;6188863;23;20012;-96
2023/01/26 09:43:35;;;;;;;29.75;4.35;;;;;;;;;;6191428;23;20028;-96
2023/01/26 09:46:08;;;;;;;27.02;3.58;;;;;;;;;;6189908;23;20005;-96
2023/01/26 09:48:43;;;;;;;44.05;4.70;;;;;;;;;;6188622;23;20009;-95
2023/01/26 09:51:30;;;;;;;29.00;4.65;;;;;;;;;;6193250;23;20096;-96
2023/01/26 09:53:58;;;;;;;40.85;4.60;;;;;;;;;;6129774;23;20033;-96
2023/01/26 09:56:27;;;;;;;46.42;4.85;;;;;;;;;;6194708;23;20011;-96
2023/01/26 09:58:59;;;;;;;24.45;4.03;;;;;;;;;;6194291;23;20009;-96
2023/01/26 10:01:28;;;;;;;49.95;4.57;;;;;;;;;;6194156;23;20004;-96
2023/01/26 10:04:01;;;;;;;37.33;4.40;;;;;;;;;;6194675;23;20012;-96
2023/01/26 10:06:42;;;;;;;38.22;4.40;;;;;;;;;;5842316;22;8222906;-96
2023/01/26 10:09:16;;;;;;;33.85;4.25;;;;;;;;;;6197085;23;20095;-96
2023/01/26 10:11:48;;;;;;;39.70;4.82;;;;;;;;;;6196339;23;20004;-96
2023/01/26 10:14:20;;;;;;;40.58;4.07;;;;;;;;;;6195724;23;20035;-96
2023/01/26 10:16:51;;;;;;;42.92;4.43;;;;;;;;;;6197254;23;20005;-96
2023/01/26 10:19:27;;;;;;;36.35;3.92;;;;;;;;;;6195559;23;20004;-96
2023/01/26 10:21:57;;;;;;;24.52;3.65;;;;;;;;;;6195985;23;20336;-96
2023/01/26 10:24:24;;;;;;;41.00;5.10;;;;;;;;;;6196954;23;20119;-96
2023/01/26 10:26:52;;;;;;;30.00;3.42;;;;;;;;;;6197744;23;20004;-96
2023/01/26 10:29:19;;;;;;;30.65;3.83;;;;;;;;;;6199527;23;20329;-96
2023/01/26 10:31:48;;;;;;;20.90;3.60;;;;;;;;;;6176109;23;20011;-96
2023/01/26 10:34:22;;;;;;;21.95;3.53;;;;;;;;;;6200196;23;20005;-96
2023/01/26 10:36:49;;;;;;;31.02;4.25;;;;;;;;;;6201736;23;20015;-96
2023/01/26 10:39:16;;;;;;;33.45;3.88;;;;;;;;;;6200810;23;20437;-96
2023/01/26 10:41:56;;;;;;;23.77;4.05;;;;;;;;;;6177228;23;20088;-96
2023/01/26 10:44:25;;;;;;;22.85;3.75;;;;;;;;;;6202150;23;20366;-96
2023/01/26 10:47:13;;;;;;;18.23;5.22;;;;;;;;;;6199494;23;20417;-96
2023/01/26 10:49:42;;;;;;;26.33;3.63;;;;;;;;;;6201515;23;20030;-96
2023/01/26 10:52:16;;;;;;;33.38;3.75;;;;;;;;;;6203750;23;20005;-96
2023/01/26 10:54:43;;;;;;;23.83;3.17;;;;;;;;;;6218422;23;20065;-96
2023/01/26 10:57:18;;;;;;;33.90;5.95;;;;;;;;;;6218206;23;20013;-96
2023/01/26 10:59:58;;;;;;;30.40;3.55;;;;;;;;;;6219056;23;20000;-96
2023/01/26 11:02:31;;;;;;;24.70;2.67;;;;;;;;;;6217337;23;20013;-96
2023/01/26 11:05:20;;;;;;;30.42;3.13;;;;;;;;;;6227376;22;20095;-96
2023/01/26 11:07:48;;;;;;;27.63;3.45;;;;;;;;;;6201982;23;20101;-96
2023/01/26 11:10:25;;;;;;;23.73;3.53;;;;;;;;;;6201851;23;20031;-96
2023/01/26 11:13:08;;;;;;;28.13;3.28;;;;;;;;;;6201154;23;20151;-96
2023/01/26 11:15:38;;;;;;;33.35;5.57;;;;;;;;;;6202355;23;20008;-96
2023/01/26 11:18:12;;;;;;;19.88;4.45;;;;;;;;;;6201152;23;20066;-96
2023/01/26 11:20:54;;;;;;;23.75;3.33;;;;;;;;;;6202363;23;20001;-96
2023/01/26 11:23:37;;;;;;;21.27;3.50;;;;;;;;;;6201479;23;20013;-96
2023/01/26 11:26:26;;;;;;;15.65;2.75;;;;;;;;;;6204686;23;20447;-96
2023/01/26 11:29:11;;;;;;;12.60;2.92;;;;;;;;;;6205294;23;20019;-96
2023/01/26 11:31:37;;;;;;;19.38;2.85;;;;;;;;;;6205876;23;20075;-96
2023/01/26 11:34:05;;;;;;;16.25;3.47;;;;;;;;;;6208678;23;20005;-96
2023/01/26 11:36:33;;;;;;;11.43;3.17;;;;;;;;;;6235294;23;20064;-96
2023/01/26 11:39:13;;;;;;;12.93;3.00;;;;;;;;;;6207979;23;20012;-96
2023/01/26 11:41:46;;;;;;;23.63;2.80;;;;;;;;;;6208989;23;20017;-96
2023/01/26 11:44:20;;;;;;;16.80;2.50;;;;;;;;;;6207638;23;20012;-96
2023/01/26 11:46:46;;;;;;;15.45;2.55;;;;;;;;;;6206280;23;20015;-96
2023/01/26 11:49:12;;;;;;;18.80;2.20;;;;;;;;;;6207657;23;20028;-96
2023/01/26 11:51:57;;;;;;;11.43;2.67;;;;;;;;;;6209836;23;20000;-96
2023/01/26 11:54:23;;;;;;;20.42;3.40;;;;;;;;;;6208190;23;20005;-96
2023/01/26 11:57:03;;;;;;;16.52;2.17;;;;;;;;;;6206460;23;20055;-96
2023/01/26 11:59:33;;;;;;;13.95;2.28;;;;;;;;;;6207780;23;20012;-96
2023/01/26 12:02:21;;;;;;;21.17;2.80;;;;;;;;;;6205832;23;20385;-96
2023/01/26 12:04:47;;;;;;;19.00;2.08;;;;;;;;;;6204481;23;20131;-96
2023/01/26 12:07:26;;;;;;;15.90;2.65;;;;;;;;;;6203330;22;20071;-96
2023/01/26 12:09:55;;;;;;;16.52;2.25;;;;;;;;;;6201313;23;20013;-96
2023/01/26 12:12:40;;;;;;;15.02;2.88;;;;;;;;;;6200186;23;20009;-96
2023/01/26 12:15:38;;;;;;;17.23;2.35;;;;;;;;;;6200832;23;20009;-96
2023/01/26 12:18:22;;;;;;;20.33;2.75;;;;;;;;;;6137975;23;20009;-96
2023/01/26 12:21:10;;;;;;;21.25;2.25;;;;;;;;;;6201521;23;20001;-96
2023/01/26 12:23:55;;;;;;;19.33;2.53;;;;;;;;;;6202427;23;20032;-96
2023/01/26 12:26:33;;;;;;;21.90;2.88;;;;;;;;;;6205473;23;20004;-96
2023/01/26 12:29:16;;;;;;;24.30;2.58;;;;;;;;;;6179983;23;20013;-96
2023/01/26 12:31:44;;;;;;;21.92;3.63;;;;;;;;;;6206302;23;20005;-96
2023/01/26 12:34:12;;;;;;;13.43;2.28;;;;;;;;;;6205691;23;20064;-96
2023/01/26 12:36:59;;;;;;;16.30;2.70;;;;;;;;;;6205441;23;20004;-96
2023/01/26 12:39:31;;;;;;;21.75;2.92;;;;;;;;;;6145618;23;20016;-96
2023/01/26 12:42:18;;;;;;;16.00;2.40;;;;;;;;;;6209276;23;20004;-96
2023/01/26 12:45:00;;;;;;;20.20;2.78;;;;;;;;;;6215754;23;20019;-96
2023/01/26 12:47:40;;;;;;;16.88;2.03;;;;;;;;;;6241454;23;20012;-96
2023/01/26 12:50:33;;;;;;;16.80;2.22;;;;;;;;;;6241991;23;20011;-96
2023/01/26 12:53:08;;;;;;;14.40;2.50;;;;;;;;;;6227559;23;20045;-96
2023/01/26 12:55:48;;;;;;;9.45;1.55;;;;;;;;;;6215649;23;20008;-96
2023/01/26 12:58:27;;;;;;;16.50;2.00;;;;;;;;;;6215051;23;20011;-96
2023/01/26 13:01:04;;;;;;;11.80;2.00;;;;;;;;;;6215416;23;20008;-96
2023/01/26 13:03:38;;;;;;;12.50;2.28;;;;;;;;;;6235985;23;19988;-96
2023/01/26 13:06:24;;;;;;;;;;;;;;;;;;;;;
2023/01/26 13:09:03;;;;;;;26.90;2.75;;;;;;;;;;6241932;23;20016;-96
2023/01/26 13:11:44;;;;;;;11.95;2.00;;;;;;;;;;6215815;23;20008;-96
2023/01/26 13:14:35;;;;;;;11.88;1.55;;;;;;;;;;6215761;23;20004;-96
2023/01/26 13:17:22;;;;;;;12.25;2.10;;;;;;;;;;6215867;23;20004;-96
2023/01/26 13:20:01;;;;;;;9.18;1.95;;;;;;;;;;6241958;23;20008;-96
2023/01/26 13:22:46;;;;;;;17.75;1.92;;;;;;;;;;6217042;23;20036;-96
2023/01/26 13:25:26;;;;;;;13.38;1.50;;;;;;;;;;6242510;23;20020;-96
2023/01/26 13:28:15;;;;;;;11.48;1.80;;;;;;;;;;6216191;23;20012;-96
2023/01/26 13:31:11;;;;;;;7.78;1.30;;;;;;;;;;6202317;23;20005;-96
2023/01/26 13:33:55;;;;;;;10.57;1.52;;;;;;;;;;6239844;23;20000;-96
2023/01/26 13:37:04;;;;;;;13.52;1.98;;;;;;;;;;6240886;23;20052;-96
2023/01/26 13:39:42;;;;;;;8.82;1.67;;;;;;;;;;6200121;23;20028;-96
2023/01/26 15:03:52;;;;;;;16.27;2.33;;;;;;;;;;6261867;22;20024;-95
2023/01/26 15:06:22;;;;;;;20.95;2.55;;;;;;;;;;6231377;23;20009;-96
2023/01/26 15:09:02;;;;;;;21.83;2.42;;;;;;;;;;6230622;23;20008;-96
2023/01/26 15:14:34;;;;;;;11.85;3.35;;;;;;;;;;6263079;22;20047;-96
2023/01/26 15:17:24;;;;;;;19.20;3.35;;;;;;;;;;6235480;23;20008;-96
2023/01/26 15:19:50;;;;;;;9.68;1.65;;;;;;;;;;6235665;23;20007;-96
2023/01/26 15:22:22;;;;;;;16.80;2.88;;;;;;;;;;6236545;23;20015;-96
2023/01/26 15:25:03;;;;;;;17.67;2.45;;;;;;;;;;6210851;23;20047;-96
2023/01/26 15:27:36;;;;;;;18.63;3.08;;;;;;;;;;6236139;23;20087;-96
2023/01/26 15:30:05;;;;;;;25.05;3.78;;;;;;;;;;6235853;23;20429;-96
2023/01/26 15:32:45;;;;;;;28.25;2.42;;;;;;;;;;6240546;23;20014;-96
2023/01/26 17:27:09;;;;;;;28.88;3.35;;;;;;;;;;6258158;22;20028;-92
2023/01/26 17:29:35;;;;;;;25.92;3.65;;;;;;;;;;6234919;22;20022;-92
2023/01/26 17:32:08;;;;;;;25.15;2.50;;;;;;;;;;6229235;22;20011;-95
2023/01/26 17:34:41;;;;;;;18.63;3.17;;;;;;;;;;6259091;22;20328;-95
2023/01/26 17:37:08;;;;;;;26.52;3.47;;;;;;;;;;6259152;22;20014;-95
2023/01/26 17:39:37;;;;;;;27.33;2.83;;;;;;;;;;6235528;22;20068;-95
2023/01/26 17:42:17;;;;;;;29.83;3.88;;;;;;;;;;6262043;22;20004;-91
2023/01/26 17:44:46;;;;;;;31.25;4.22;;;;;;;;;;6260616;22;20029;-94
2023/01/26 17:47:15;;;;;;;24.10;3.25;;;;;;;;;;6260596;22;19992;-94
2023/01/26 17:49:44;;;;;;;21.65;3.28;;;;;;;;;;6259260;22;20004;-95
2023/01/26 17:52:13;;;;;;;45.95;3.72;;;;;;;;;;6258200;22;20019;-94
2023/01/26 17:54:42;;;;;;;33.63;4.40;;;;;;;;;;6258998;22;20091;-95
2023/01/26 17:57:10;;;;;;;30.02;4.45;;;;;;;;;;6258185;22;20035;-96
2023/01/26 17:59:39;;;;;;;34.65;4.22;;;;;;;;;;6257735;22;20008;-96
2023/01/26 18:02:15;;;;;;;24.75;3.88;;;;;;;;;;6234291;22;20018;-93
2023/01/26 18:04:44;;;;;;;29.27;4.38;;;;;;;;;;6262306;22;20035;-93
2023/01/26 18:07:10;;;;;;;40.50;4.75;;;;;;;;;;6263643;22;20008;-93
2023/01/26 18:09:39;;;;;;;24.10;3.53;;;;;;;;;;6258841;22;20011;-92
2023/01/26 18:12:06;;;;;;;24.52;3.50;;;;;;;;;;6258376;22;20000;-92
2023/01/26 18:14:33;;;;;;;27.98;4.28;;;;;;;;;;6234007;22;20005;-93
2023/01/26 18:16:59;;;;;;;26.88;4.35;;;;;;;;;;6231862;22;20011;-93
2023/01/26 18:19:28;;;;;;;31.48;5.53;;;;;;;;;;6258600;22;20031;-93
2023/01/26 18:21:54;;;;;;;45.03;8.40;;;;;;;;;;6232409;22;20018;-93
2023/01/26 18:24:21;;;;;;;28.02;4.97;;;;;;;;;;6258186;22;20018;-92
2023/01/26 18:26:48;;;;;;;35.80;4.28;;;;;;;;;;6257524;22;20324;-94
2023/01/26 18:29:15;;;;;;;32.47;4.47;;;;;;;;;;6250871;22;20047;-92
2023/01/26 18:31:42;;;;;;;22.55;3.97;;;;;;;;;;6252520;23;20000;-93
2023/01/26 18:34:09;;;;;;;32.08;3.83;;;;;;;;;;6253351;23;20032;-92
2023/01/26 18:36:35;;;;;;;25.83;4.40;;;;;;;;;;6253232;23;20474;-93
2023/01/26 18:39:04;;;;;;;23.23;3.63;;;;;;;;;;6228028;23;20008;-92
2023/01/26 18:41:32;;;;;;;16.40;4.25;;;;;;;;;;6252482;23;20371;-93
2023/01/26 18:43:58;;;;;;;24.63;4.07;;;;;;;;;;6251335;23;20408;-93
2023/01/26 18:46:25;;;;;;;37.33;5.22;;;;;;;;;;6252080;23;20016;-94
2023/01/26 18:48:59;;;;;;;32.35;3.70;;;;;;;;;;6253460;23;20003;-93